Time;durP1;ratioP1;P1;durP2;ratioP2;P2;SDS_P1;SDS_P2;PMS_P1;PMS_P2;Temp;Humidity;BMP_temperature;BMP_pressure;BME280_temperature;BME280_humidity;BME280_pressure;Samples;Min_cycle;Max_cycle;Signal;HPM_P1;HPM_P2
2022/07/22 00:01:39;;;;;;;7.85;7.00;;;;;;;24.68;100.00;99586.00;5033124;28;20321;-78
2022/07/22 00:04:06;;;;;;;7.35;6.75;;;;;;;24.65;100.00;99594.81;5046340;28;20328;-78
2022/07/22 00:06:33;;;;;;;7.57;6.93;;;;;;;24.61;100.00;99583.69;5049307;28;20762;-80
2022/07/22 00:08:59;;;;;;;7.57;6.93;;;;;;;24.56;100.00;99589.31;5047969;28;20238;-78
2022/07/22 00:11:26;;;;;;;7.97;7.28;;;;;;;24.42;100.00;99580.34;5043529;28;20304;-78
2022/07/22 00:13:53;;;;;;;7.32;6.82;;;;;;;24.37;100.00;99580.47;5044953;28;20332;-79
2022/07/22 00:16:20;;;;;;;7.78;7.13;;;;;;;24.32;100.00;99572.38;5048710;28;20263;-78
2022/07/22 00:18:46;;;;;;;7.70;7.10;;;;;;;24.26;100.00;99566.25;5047631;28;20275;-79
2022/07/22 00:21:13;;;;;;;7.47;6.88;;;;;;;24.15;100.00;99578.50;5045852;28;20244;-78
2022/07/22 00:23:40;;;;;;;8.02;7.32;;;;;;;24.03;100.00;99568.09;5047164;28;20331;-78
2022/07/22 00:26:06;;;;;;;8.45;7.65;;;;;;;23.95;100.00;99579.78;5047933;28;20234;-78
2022/07/22 00:28:33;;;;;;;8.43;7.65;;;;;;;23.88;100.00;99578.59;5047944;28;20726;-78
2022/07/22 00:31:00;;;;;;;7.93;7.32;;;;;;;23.76;100.00;99570.94;5052632;28;20316;-78
2022/07/22 00:33:27;;;;;;;8.40;7.65;;;;;;;23.73;100.00;99576.22;5046697;28;20782;-79
2022/07/22 00:35:54;;;;;;;8.15;7.45;;;;;;;23.72;100.00;99577.31;5048253;28;20363;-80
2022/07/22 00:38:20;;;;;;;8.52;7.75;;;;;;;23.63;100.00;99585.44;5046769;28;20244;-78
2022/07/22 00:40:47;;;;;;;8.23;7.53;;;;;;;23.51;100.00;99585.16;5049097;28;20321;-79
2022/07/22 00:43:14;;;;;;;7.80;7.07;;;;;;;23.43;100.00;99583.09;5053014;28;20344;-79
2022/07/22 00:45:41;;;;;;;7.85;7.18;;;;;;;23.34;100.00;99585.75;5048178;28;20258;-78
2022/07/22 00:48:08;;;;;;;8.40;7.70;;;;;;;23.27;100.00;99597.09;5049188;28;20233;-78
2022/07/22 00:50:35;;;;;;;7.80;7.18;;;;;;;23.21;100.00;99590.09;5046098;28;20275;-83
2022/07/22 00:53:01;;;;;;;7.88;7.28;;;;;;;23.13;100.00;99592.72;5030216;28;20239;-81
2022/07/22 00:55:29;;;;;;;7.95;7.35;;;;;;;23.05;100.00;99591.50;5031011;28;20312;-78
2022/07/22 00:57:56;;;;;;;8.18;7.38;;;;;;;22.99;100.00;99605.56;5047868;28;20272;-81
2022/07/22 01:00:23;;;;;;;8.07;7.20;;;;;;;22.90;100.00;99600.00;5047581;28;20648;-81
2022/07/22 01:02:50;;;;;;;7.78;7.18;;;;;;;22.86;100.00;99598.97;5048894;28;20226;-80
2022/07/22 01:05:17;;;;;;;8.00;7.28;;;;;;;22.80;100.00;99594.72;5050164;28;20244;-80
2022/07/22 01:07:44;;;;;;;8.27;7.50;;;;;;;22.77;100.00;99592.56;5045349;28;20863;-80
2022/07/22 01:10:11;;;;;;;8.20;7.50;;;;;;;22.76;100.00;99604.63;5046018;28;20851;-80
2022/07/22 01:12:39;;;;;;;7.75;7.15;;;;;;;22.73;100.00;99600.56;5044807;28;20258;-80
2022/07/22 01:15:06;;;;;;;7.63;7.03;;;;;;;22.69;100.00;99595.97;5048696;28;20262;-79
2022/07/22 01:17:33;;;;;;;7.53;6.90;;;;;;;22.67;100.00;99599.00;5045926;28;20935;-80
2022/07/22 01:20:07;;;;;;;8.48;7.53;;;;;;;22.73;100.00;99600.56;5046816;28;20287;-81
2022/07/22 01:22:34;;;;;;;7.95;6.82;;;;;;;22.82;100.00;99601.47;5046290;28;20221;-80
2022/07/22 01:25:01;;;;;;;8.25;7.40;;;;;;;22.90;100.00;99599.19;5046014;28;20282;-81
2022/07/22 01:27:29;;;;;;;7.85;7.25;;;;;;;22.89;100.00;99603.84;5047392;28;20231;-82
2022/07/22 01:29:56;;;;;;;8.05;7.43;;;;;;;23.09;100.00;99598.00;5078544;28;20230;-80
2022/07/22 01:32:23;;;;;;;7.45;6.85;;;;;;;23.25;100.00;99596.56;5042957;28;20400;-80
2022/07/22 01:34:50;;;;;;;7.53;6.85;;;;;;;23.13;100.00;99600.94;5045834;28;20667;-80
2022/07/22 01:37:16;;;;;;;7.13;6.63;;;;;;;23.05;100.00;99602.44;5046264;28;20236;-80
2022/07/22 01:39:43;;;;;;;7.60;7.05;;;;;;;23.12;100.00;99596.56;5046936;28;20227;-80
2022/07/22 01:42:10;;;;;;;8.27;7.47;;;;;;;23.05;100.00;99602.44;5048303;28;20678;-80
2022/07/22 01:44:37;;;;;;;7.15;6.55;;;;;;;23.02;100.00;99603.03;5044509;28;20225;-80
2022/07/22 01:47:03;;;;;;;7.63;7.03;;;;;;;22.96;100.00;99600.69;5045743;28;20591;-80
2022/07/22 01:49:30;;;;;;;7.90;7.20;;;;;;;22.89;100.00;99603.03;5047092;28;20225;-81
2022/07/22 01:51:57;;;;;;;7.78;7.18;;;;;;;22.82;100.00;99603.41;5044648;28;20241;-81
2022/07/22 01:54:23;;;;;;;7.60;7.00;;;;;;;22.79;100.00;99606.75;5048226;28;20260;-80
2022/07/22 01:56:50;;;;;;;7.63;6.95;;;;;;;22.72;100.00;99598.94;5043962;28;20229;-80
2022/07/22 01:59:17;;;;;;;7.75;7.15;;;;;;;22.68;100.00;99595.16;5047424;28;20239;-80
2022/07/22 02:01:45;;;;;;;8.07;7.47;;;;;;;22.69;100.00;99601.44;5030516;28;20273;-81
2022/07/22 02:04:12;;;;;;;7.47;6.93;;;;;;;22.63;100.00;99597.19;5046347;28;20588;-80
2022/07/22 02:06:38;;;;;;;7.72;7.10;;;;;;;22.52;100.00;99603.91;5044373;28;20229;-80
2022/07/22 02:09:05;;;;;;;7.60;7.03;;;;;;;22.54;100.00;99607.94;5023241;28;20318;-80
2022/07/22 02:11:58;;;;;;;7.40;6.80;;;;;;;22.55;100.00;99597.84;5044656;28;20237;-80
2022/07/22 02:14:25;;;;;;;7.65;7.00;;;;;;;22.59;100.00;99596.94;5046585;28;20235;-80
2022/07/22 02:16:51;;;;;;;7.22;6.70;;;;;;;22.61;100.00;99604.84;5046616;28;20229;-81
2022/07/22 02:19:18;;;;;;;7.50;6.82;;;;;;;22.61;100.00;99597.47;5077668;28;20226;-80
2022/07/22 02:21:45;;;;;;;7.50;6.80;;;;;;;22.73;100.00;99597.81;5043844;28;20266;-82
2022/07/22 02:24:11;;;;;;;7.45;6.85;;;;;;;22.64;100.00;99591.41;5047955;28;20261;-81
2022/07/22 02:26:39;;;;;;;7.65;7.15;;;;;;;22.57;100.00;99582.81;5049726;28;20591;-81
2022/07/22 02:29:05;;;;;;;8.45;7.75;;;;;;;22.55;100.00;99597.84;5043835;28;20291;-81
2022/07/22 02:31:32;;;;;;;8.30;7.55;;;;;;;22.51;100.00;99592.19;5047790;28;20236;-81
2022/07/22 02:33:59;;;;;;;7.30;6.80;;;;;;;22.41;100.00;99600.53;5049022;28;20675;-80
2022/07/22 02:36:28;;;;;;;7.45;6.82;;;;;;;22.32;100.00;99600.41;5047568;28;20273;-81
2022/07/22 02:38:56;;;;;;;7.80;7.10;;;;;;;22.29;100.00;99603.75;5042037;28;20242;-81
2022/07/22 02:41:23;;;;;;;8.18;7.47;;;;;;;22.26;100.00;99598.03;5031424;28;20231;-81
2022/07/22 02:43:54;;;;;;;7.20;6.57;;;;;;;22.17;100.00;99603.38;5047659;28;20765;-81
2022/07/22 02:46:22;;;;;;;7.65;7.05;;;;;;;22.15;100.00;99593.88;5081234;28;20673;-81
2022/07/22 02:48:49;;;;;;;7.80;7.10;;;;;;;22.14;100.00;99608.59;5046436;28;20228;-81
2022/07/22 02:51:17;;;;;;;7.65;6.95;;;;;;;22.00;100.00;99599.53;5031348;28;20238;-81
2022/07/22 02:53:44;;;;;;;7.93;7.22;;;;;;;21.92;100.00;99603.72;5052110;28;20217;-80
2022/07/22 02:56:11;;;;;;;8.13;7.32;;;;;;;21.86;100.00;99602.16;5052402;28;20262;-81
2022/07/22 02:58:38;;;;;;;8.20;7.50;;;;;;;21.81;100.00;99603.03;5051304;28;20587;-80
2022/07/22 03:01:05;;;;;;;7.85;7.18;;;;;;;21.78;100.00;99603.66;5052564;28;20236;-81
2022/07/22 03:03:41;;;;;;;8.45;7.75;;;;;;;21.65;100.00;99606.28;5051034;28;20727;-80
2022/07/22 03:06:08;;;;;;;8.48;7.88;;;;;;;21.61;100.00;99606.03;5050498;28;20232;-80
2022/07/22 03:08:40;;;;;;;8.05;7.40;;;;;;;21.56;100.00;99611.56;5045687;28;20230;-80
2022/07/22 03:11:07;;;;;;;8.50;7.80;;;;;;;21.55;100.00;99603.69;5050863;28;20236;-81
2022/07/22 03:13:34;;;;;;;7.97;7.35;;;;;;;21.43;100.00;99609.53;5049833;28;20254;-81
2022/07/22 03:16:00;;;;;;;8.93;7.95;;;;;;;21.41;100.00;99614.47;5040556;28;20253;-80
2022/07/22 03:18:27;;;;;;;8.60;7.85;;;;;;;21.32;100.00;99613.50;5048529;28;20241;-81
2022/07/22 03:20:55;;;;;;;8.52;7.82;;;;;;;21.21;100.00;99620.16;5051453;28;20237;-81
2022/07/22 03:23:22;;;;;;;8.25;7.65;;;;;;;21.18;100.00;99624.28;5039834;28;20234;-81
2022/07/22 03:25:48;;;;;;;8.70;8.02;;;;;;;21.14;100.00;99619.72;5043509;28;20593;-80
2022/07/22 03:28:15;;;;;;;9.02;7.78;;;;;;;21.12;100.00;99624.59;5042524;28;20237;-82
2022/07/22 03:30:42;;;;;;;8.98;8.18;;;;;;;21.10;100.00;99616.69;5048528;28;20223;-81
2022/07/22 03:33:09;;;;;;;9.00;7.75;;;;;;;21.07;100.00;99620.81;5040132;28;20765;-81
2022/07/22 03:35:39;;;;;;;9.10;8.30;;;;;;;21.02;100.00;99614.59;5045780;28;20234;-81
2022/07/22 03:38:05;;;;;;;9.18;8.27;;;;;;;21.03;100.00;99618.97;5044754;28;20867;-81
2022/07/22 03:40:34;;;;;;;8.50;7.90;;;;;;;21.03;100.00;99621.69;5046200;28;20242;-81
2022/07/22 03:43:02;;;;;;;8.75;8.05;;;;;;;21.04;100.00;99620.59;5049446;28;20259;-81
2022/07/22 03:45:29;;;;;;;8.52;7.82;;;;;;;21.04;100.00;99618.66;5045348;28;20230;-81
2022/07/22 03:47:57;;;;;;;9.65;8.65;;;;;;;21.08;100.00;99624.38;5043993;28;20226;-80
2022/07/22 03:50:27;;;;;;;9.27;8.45;;;;;;;21.08;100.00;99627.09;5029876;28;20224;-81
2022/07/22 03:52:54;;;;;;;10.45;8.65;;;;;;;21.09;100.00;99624.06;5050616;28;20708;-81
2022/07/22 03:55:21;;;;;;;9.45;8.65;;;;;;;21.14;100.00;99628.66;5041877;28;20231;-81
2022/07/22 03:57:51;;;;;;;9.02;8.23;;;;;;;21.16;100.00;99629.19;5054632;28;20294;-80
2022/07/22 04:00:25;;;;;;;9.30;8.50;;;;;;;21.15;100.00;99624.84;5035972;28;20237;-81
2022/07/22 04:02:52;;;;;;;8.63;7.88;;;;;;;21.27;100.00;99629.91;5043330;28;20774;-81
2022/07/22 04:05:37;;;;;;;8.88;8.07;;;;;;;21.95;100.00;99631.25;5043855;28;20244;-81
2022/07/22 04:08:05;;;;;;;9.10;8.40;;;;;;;22.78;100.00;99638.72;5071111;28;20242;-81
2022/07/22 04:10:32;;;;;;;10.02;9.10;;;;;;;23.68;100.00;99648.25;5043586;28;20279;-81
2022/07/22 04:12:59;;;;;;;9.15;8.35;;;;;;;24.46;100.00;99664.31;5044168;28;20230;-80
2022/07/22 04:15:36;;;;;;;8.38;7.65;;;;;;;25.12;100.00;99673.63;5027168;28;20226;-80
2022/07/22 04:18:02;;;;;;;8.90;8.18;;;;;;;25.72;100.00;99687.63;5044208;28;20237;-80
2022/07/22 04:20:29;;;;;;;8.73;7.93;;;;;;;25.54;100.00;99635.75;5046017;28;20226;-81
2022/07/22 04:23:16;;;;;;;8.60;7.72;;;;;;;25.11;100.00;99636.38;5048318;28;20259;-81
2022/07/22 04:25:49;;;;;;;8.70;7.90;;;;;;;24.63;100.00;99638.97;5045217;28;20230;-80
2022/07/22 04:28:16;;;;;;;9.15;8.25;;;;;;;24.21;100.00;99643.00;5033172;28;20230;-81
2022/07/22 04:30:43;;;;;;;10.38;8.10;;;;;;;24.11;100.00;99635.00;5047124;28;20295;-81
2022/07/22 04:33:09;;;;;;;9.10;8.30;;;;;;;23.97;100.00;99635.03;5047320;28;20336;-80
2022/07/22 04:35:36;;;;;;;9.43;8.57;;;;;;;23.82;100.00;99632.63;5047196;28;20249;-80
2022/07/22 04:38:17;;;;;;;9.45;8.43;;;;;;;23.76;100.00;99625.63;5044186;28;20305;-80
2022/07/22 04:40:54;;;;;;;9.15;8.32;;;;;;;23.76;100.00;99633.03;5046154;28;20256;-81
2022/07/22 04:43:23;;;;;;;10.40;8.90;;;;;;;23.71;100.00;99631.22;5046884;28;20734;-82
2022/07/22 04:45:50;;;;;;;10.48;9.45;;;;;;;23.73;100.00;99644.59;5049585;28;20234;-80
2022/07/22 04:48:17;;;;;;;9.75;8.90;;;;;;;23.78;100.00;99636.28;5046715;28;20258;-81
2022/07/22 04:50:44;;;;;;;10.02;8.85;;;;;;;23.88;100.00;99636.88;5043751;28;20224;-81
2022/07/22 04:53:11;;;;;;;9.65;8.90;;;;;;;24.02;100.00;99634.09;5046986;28;20246;-81
2022/07/22 04:55:38;;;;;;;9.30;8.32;;;;;;;24.16;100.00;99634.91;5046656;28;20229;-81
2022/07/22 04:58:06;;;;;;;8.73;8.02;;;;;;;24.21;100.00;99639.47;5043801;28;20239;-81
2022/07/22 05:00:37;;;;;;;9.82;8.95;;;;;;;24.28;100.00;99635.16;5036399;28;20229;-81
2022/07/22 05:03:04;;;;;;;10.48;9.27;;;;;;;24.41;100.00;99642.50;5032750;28;20230;-81
2022/07/22 05:05:31;;;;;;;9.80;8.93;;;;;;;24.64;100.00;99642.50;5045348;28;20697;-81
2022/07/22 05:07:58;;;;;;;9.43;8.52;;;;;;;24.79;100.00;99644.88;5046558;28;20254;-81
2022/07/22 05:10:27;;;;;;;10.88;9.20;;;;;;;24.80;100.00;99643.75;5046506;28;20231;-79
2022/07/22 05:12:54;;;;;;;10.30;8.57;;;;;;;24.96;100.00;99645.03;5048808;28;20295;-82
2022/07/22 05:15:20;;;;;;;9.60;8.60;;;;;;;25.13;100.00;99645.09;5048964;28;20241;-79
2022/07/22 05:17:47;;;;;;;11.02;8.68;;;;;;;25.31;100.00;99649.53;5031447;28;20228;-80
2022/07/22 05:20:19;;;;;;;9.52;8.55;;;;;;;25.44;100.00;99647.81;5047559;28;20318;-79
2022/07/22 05:22:46;;;;;;;9.80;8.63;;;;;;;25.46;100.00;99645.56;5049147;28;20282;-79
2022/07/22 05:25:19;;;;;;;9.35;8.52;;;;;;;25.54;100.00;99649.47;5043952;28;20251;-79
2022/07/22 05:27:50;;;;;;;8.75;8.07;;;;;;;25.71;100.00;99647.59;5049074;28;20229;-79
2022/07/22 05:30:20;;;;;;;8.93;8.07;;;;;;;25.92;100.00;99655.25;5035356;28;20233;-78
2022/07/22 05:32:50;;;;;;;11.68;8.10;;;;;;;26.04;97.16;99647.19;5048906;28;20233;-79
2022/07/22 05:35:25;;;;;;;9.23;8.50;;;;;;;26.21;96.04;99647.25;5047340;28;20303;-80
2022/07/22 05:37:52;;;;;;;10.93;8.63;;;;;;;26.38;96.28;99654.66;5050236;28;20233;-78
2022/07/22 05:40:19;;;;;;;10.13;9.13;;;;;;;26.40;92.67;99647.72;5048347;28;20308;-80
2022/07/22 05:42:46;;;;;;;9.27;8.35;;;;;;;26.46;92.68;99651.91;5046133;28;20237;-79
2022/07/22 05:45:13;;;;;;;9.15;8.35;;;;;;;26.33;96.34;99649.34;5048611;28;20738;-79
2022/07/22 05:47:40;;;;;;;9.88;8.95;;;;;;;26.37;95.87;99651.09;5048862;28;20236;-79
2022/07/22 05:50:07;;;;;;;11.05;8.55;;;;;;;26.52;94.40;99649.81;5078702;28;20320;-79
2022/07/22 05:52:38;;;;;;;11.55;8.65;;;;;;;26.46;95.89;99651.09;5047537;28;20312;-80
2022/07/22 05:55:06;;;;;;;10.55;8.48;;;;;;;26.66;94.22;99655.94;5048944;28;20248;-79
2022/07/22 05:57:33;;;;;;;10.68;8.60;;;;;;;26.73;93.19;99651.59;5049074;28;20827;-79
2022/07/22 06:00:02;;;;;;;9.25;8.35;;;;;;;26.80;91.48;99653.81;5045726;28;20261;-79
2022/07/22 06:02:28;;;;;;;9.45;8.55;;;;;;;27.01;92.79;99659.47;5047592;28;20264;-80
2022/07/22 06:04:55;;;;;;;9.20;8.10;;;;;;;27.20;85.06;99653.59;5046175;28;20237;-79
2022/07/22 06:07:22;;;;;;;9.57;8.50;;;;;;;27.25;81.19;99656.16;5046551;28;20627;-79
2022/07/22 06:09:56;;;;;;;8.70;7.95;;;;;;;27.36;80.92;99646.41;5047802;28;20291;-79
2022/07/22 06:12:23;;;;;;;8.55;7.70;;;;;;;27.57;74.59;99647.31;5076629;28;20235;-79
2022/07/22 06:14:50;;;;;;;8.85;8.00;;;;;;;27.62;74.78;99652.63;5048488;28;20260;-79
2022/07/22 06:17:18;;;;;;;8.52;7.80;;;;;;;27.79;73.05;99647.03;5078909;28;20647;-80
2022/07/22 06:19:45;;;;;;;9.27;8.30;;;;;;;27.87;68.39;99651.66;5049579;28;20579;-79
2022/07/22 06:22:11;;;;;;;8.15;7.45;;;;;;;27.91;63.50;99651.81;5044348;28;20260;-79
2022/07/22 06:24:38;;;;;;;8.10;7.30;;;;;;;27.90;60.42;99653.75;5047892;28;20645;-80
2022/07/22 06:27:05;;;;;;;8.32;7.63;;;;;;;28.04;60.72;99654.28;5045128;28;20233;-79
2022/07/22 06:29:31;;;;;;;8.43;7.72;;;;;;;27.93;61.15;99658.59;5051242;28;20229;-79
2022/07/22 06:31:58;;;;;;;7.85;7.18;;;;;;;27.87;60.02;99645.34;5048342;28;20234;-83
2022/07/22 06:34:25;;;;;;;7.88;7.22;;;;;;;27.95;59.38;99641.72;5050902;28;20225;-78
2022/07/22 06:36:59;;;;;;;8.00;7.30;;;;;;;28.01;60.20;99645.91;5032166;28;20244;-80
2022/07/22 06:39:27;;;;;;;8.13;7.47;;;;;;;27.88;60.17;99642.28;5049917;28;20725;-78
2022/07/22 06:42:12;;;;;;;8.32;7.63;;;;;;;28.16;60.46;99642.59;5050436;28;20240;-79
2022/07/22 06:44:57;;;;;;;8.48;7.68;;;;;;;28.34;57.78;99638.56;5046548;28;20237;-79
2022/07/22 06:47:36;;;;;;;8.35;7.60;;;;;;;28.18;57.76;99642.28;5051130;28;20703;-78
2022/07/22 06:50:06;;;;;;;8.13;7.43;;;;;;;28.08;58.78;99635.19;5033710;28;20237;-79
2022/07/22 06:52:40;;;;;;;8.25;7.65;;;;;;;28.01;60.09;99640.41;5035247;28;20267;-79
2022/07/22 06:55:08;;;;;;;7.97;7.35;;;;;;;28.11;60.14;99634.53;5050608;28;20669;-79
2022/07/22 06:57:38;;;;;;;8.77;7.88;;;;;;;28.25;60.47;99637.81;5051139;28;20275;-79
2022/07/22 07:00:09;;;;;;;8.77;7.82;;;;;;;28.24;59.07;99633.44;5045843;28;20229;-79
2022/07/22 07:02:59;;;;;;;8.70;7.38;;;;;;;28.27;59.86;99627.28;5049938;28;20781;-79
2022/07/22 07:05:46;;;;;;;9.02;7.57;;;;;;;28.52;60.47;99625.44;5032371;28;20755;-81
2022/07/22 07:08:15;;;;;;;8.00;7.40;;;;;;;28.56;59.52;99634.63;5046593;28;20751;-80
2022/07/22 07:10:41;;;;;;;8.40;7.80;;;;;;;28.65;56.83;99624.31;5085245;28;20244;-79
2022/07/22 07:13:12;;;;;;;8.98;8.18;;;;;;;28.50;59.35;99635.19;5049975;28;20238;-78
2022/07/22 07:15:43;;;;;;;9.30;8.40;;;;;;;28.49;60.57;99626.13;5066195;28;20222;-81
2022/07/22 07:18:10;;;;;;;9.00;8.30;;;;;;;28.68;59.04;99628.38;5049314;28;20238;-82
2022/07/22 07:20:37;;;;;;;8.20;7.60;;;;;;;28.67;58.27;99630.31;5078434;28;20734;-81
2022/07/22 07:23:06;;;;;;;9.32;8.43;;;;;;;28.60;58.17;99623.75;5051241;28;20237;-79
2022/07/22 07:25:37;;;;;;;8.80;8.10;;;;;;;28.87;58.60;99631.44;5045911;28;20317;-80
2022/07/22 07:28:04;;;;;;;8.63;7.97;;;;;;;28.98;58.04;99626.28;5044747;28;20272;-81
2022/07/22 07:30:53;;;;;;;8.98;8.20;;;;;;;28.89;57.00;99615.34;5046816;28;20226;-81
2022/07/22 07:33:21;;;;;;;8.68;7.88;;;;;;;28.80;56.23;99628.41;5029318;28;20600;-81
2022/07/22 07:35:48;;;;;;;8.82;8.02;;;;;;;28.97;55.01;99613.66;5051336;28;20241;-79
2022/07/22 07:38:19;;;;;;;8.45;7.85;;;;;;;29.15;55.82;99620.59;5044501;28;20583;-81
2022/07/22 07:40:48;;;;;;;8.63;7.97;;;;;;;29.21;56.65;99616.44;5034668;28;20236;-81
2022/07/22 07:43:15;;;;;;;9.00;8.30;;;;;;;29.35;54.58;99611.41;5051853;28;20320;-81
2022/07/22 07:45:42;;;;;;;8.70;8.00;;;;;;;29.22;54.57;99615.28;5034199;28;20710;-81
2022/07/22 07:48:09;;;;;;;8.15;7.55;;;;;;;29.23;53.75;99611.38;5048025;28;20221;-80
2022/07/22 07:50:36;;;;;;;8.65;7.80;;;;;;;28.69;54.93;99616.19;5063523;28;20261;-78
2022/07/22 07:53:04;;;;;;;9.00;8.07;;;;;;;29.06;57.59;99611.59;5050282;28;20649;-83
2022/07/22 07:55:32;;;;;;;9.55;8.80;;;;;;;29.14;54.24;99619.78;5048743;28;20232;-79
2022/07/22 07:57:59;;;;;;;8.95;8.23;;;;;;;28.97;53.78;99617.22;5080375;28;20233;-79
2022/07/22 08:00:28;;;;;;;8.70;7.85;;;;;;;29.20;53.77;99612.09;5041299;28;20287;-79
2022/07/22 08:02:55;;;;;;;14.13;8.57;;;;;;;29.13;53.70;99618.16;5048181;28;20249;-79
2022/07/22 08:05:24;;;;;;;10.35;7.65;;;;;;;29.05;53.61;99618.25;5032633;28;21092;-81
2022/07/22 08:07:52;;;;;;;9.07;8.30;;;;;;;29.15;54.78;99613.13;5024772;28;20234;-81
2022/07/22 08:10:20;;;;;;;8.70;8.00;;;;;;;29.41;54.10;99609.22;5015967;28;20233;-81
2022/07/22 08:13:10;;;;;;;8.80;8.00;;;;;;;29.49;51.18;99611.09;5045750;28;20230;-80
2022/07/22 08:16:06;;;;;;;8.90;8.10;;;;;;;29.28;53.91;99606.44;5026776;28;20242;-79
2022/07/22 08:18:36;;;;;;;8.40;7.70;;;;;;;29.34;56.23;99604.31;5036770;28;20256;-79
2022/07/22 08:21:03;;;;;;;9.65;8.85;;;;;;;29.53;53.28;99606.50;5058619;28;20607;-79
2022/07/22 08:23:53;;;;;;;9.10;7.97;;;;;;;29.68;53.19;99598.28;5036766;28;20226;-81
2022/07/22 08:26:20;;;;;;;9.40;8.60;;;;;;;29.83;50.74;99598.72;5044392;28;20233;-81
2022/07/22 08:28:46;;;;;;;9.18;8.38;;;;;;;29.77;51.26;99608.44;5041122;28;20226;-82
2022/07/22 08:31:13;;;;;;;11.95;8.70;;;;;;;29.76;51.26;99604.84;5044221;28;20238;-81
2022/07/22 08:33:40;;;;;;;12.68;8.80;;;;;;;29.78;53.47;99594.25;5040249;28;20217;-82
2022/07/22 08:36:07;;;;;;;18.50;8.80;;;;;;;29.80;53.64;99604.97;5029636;28;20324;-82
2022/07/22 08:38:34;;;;;;;9.73;8.65;;;;;;;29.83;50.73;99599.53;5044500;28;20222;-82
2022/07/22 08:41:03;;;;;;;9.55;8.73;;;;;;;29.85;51.53;99600.00;5037293;28;20222;-82
2022/07/22 08:43:35;;;;;;;9.50;8.15;;;;;;;30.18;51.98;99589.59;5047852;28;20715;-81
2022/07/22 08:46:02;;;;;;;9.18;8.43;;;;;;;30.25;49.89;99583.44;5029960;28;20240;-80
2022/07/22 08:48:39;;;;;;;8.73;7.93;;;;;;;30.57;48.67;99600.97;5037947;28;20234;-80
2022/07/22 08:51:24;;;;;;;8.75;8.05;;;;;;;30.24;46.61;99592.06;5047699;28;20311;-80
2022/07/22 08:54:13;;;;;;;9.88;8.65;;;;;;;30.43;49.66;99590.28;5044659;28;20229;-79
2022/07/22 08:56:42;;;;;;;10.70;8.73;;;;;;;30.67;47.43;99585.81;5027274;28;20312;-80
2022/07/22 08:59:09;;;;;;;8.98;8.18;;;;;;;30.45;49.03;99590.78;5043575;28;20232;-80
2022/07/22 09:01:35;;;;;;;8.85;8.05;;;;;;;30.37;46.91;99582.59;5051147;28;20221;-79
2022/07/22 09:04:03;;;;;;;9.00;8.18;;;;;;;30.76;45.94;99587.25;5078404;28;20234;-79
2022/07/22 09:06:34;;;;;;;8.95;8.15;;;;;;;30.61;44.93;99575.00;5033730;28;20229;-80
2022/07/22 09:09:05;;;;;;;9.05;8.23;;;;;;;30.70;46.50;99582.38;5030878;28;20763;-79
2022/07/22 09:12:08;;;;;;;9.30;8.43;;;;;;;30.81;44.89;99581.47;5042907;28;20239;-79
2022/07/22 09:14:54;;;;;;;8.60;7.80;;;;;;;30.63;43.58;99579.38;5042848;28;20257;-79
2022/07/22 09:17:40;;;;;;;8.05;7.35;;;;;;;30.84;42.77;99579.97;5043327;28;20812;-79
2022/07/22 09:20:45;;;;;;;8.38;7.57;;;;;;;30.94;43.11;99579.41;5032758;28;20233;-80
2022/07/22 09:23:44;;;;;;;8.50;7.80;;;;;;;31.01;44.57;99574.13;5045819;28;20359;-80
2022/07/22 09:26:33;;;;;;;8.38;7.72;;;;;;;31.23;42.68;99579.00;5028133;28;20234;-79
2022/07/22 09:29:18;;;;;;;8.10;7.50;;;;;;;30.91;42.58;99580.13;5041234;28;20240;-79
2022/07/22 09:32:07;;;;;;;8.73;7.97;;;;;;;31.14;42.37;99583.94;5047397;28;20237;-79
2022/07/22 09:34:48;;;;;;;8.60;7.80;;;;;;;31.20;42.87;99571.44;5046841;28;20854;-79
2022/07/22 09:37:22;;;;;;;8.43;7.70;;;;;;;31.43;42.59;99572.38;5040649;28;20252;-79
2022/07/22 09:39:48;;;;;;;9.65;8.60;;;;;;;31.23;42.57;99569.91;5038435;28;20602;-79
2022/07/22 09:42:16;;;;;;;8.20;7.53;;;;;;;31.53;42.21;99567.47;5038776;28;20233;-80
2022/07/22 09:44:43;;;;;;;8.85;8.15;;;;;;;31.37;42.08;99571.06;5026932;28;20233;-79
2022/07/22 09:47:28;;;;;;;8.40;7.70;;;;;;;31.42;42.39;99572.75;5047078;28;20237;-80
2022/07/22 09:50:28;;;;;;;8.75;7.88;;;;;;;31.87;39.72;99563.91;5046234;28;20235;-80
2022/07/22 09:53:31;;;;;;;7.35;6.65;;;;;;;32.07;38.50;99562.75;4988554;28;20236;-79
2022/07/22 09:56:04;;;;;;;7.88;7.18;;;;;;;32.10;38.35;99552.94;5018657;28;20236;-79
2022/07/22 09:58:32;;;;;;;8.13;7.32;;;;;;;32.20;39.01;99555.13;5012662;28;20246;-79
2022/07/22 10:01:03;;;;;;;7.47;6.78;;;;;;;32.02;38.17;99551.94;5023616;28;20322;-79
2022/07/22 10:03:34;;;;;;;7.65;6.80;;;;;;;32.06;37.67;99546.47;5013768;28;20265;-80
2022/07/22 10:06:02;;;;;;;10.07;7.00;;;;;;;31.87;37.62;99552.81;5027587;28;20210;-79
2022/07/22 10:08:31;;;;;;;7.43;6.80;;;;;;;32.23;37.88;99538.56;5033630;28;20260;-79
2022/07/22 10:11:04;;;;;;;7.28;6.75;;;;;;;32.00;37.36;99537.69;5038373;28;20248;-79
2022/07/22 10:13:32;;;;;;;7.68;6.95;;;;;;;32.27;38.95;99531.13;5028634;28;20248;-80
2022/07/22 10:15:59;;;;;;;7.93;6.65;;;;;;;32.20;38.86;99535.72;5018990;28;20279;-79
2022/07/22 10:18:29;;;;;;;7.03;6.50;;;;;;;32.53;36.51;99535.16;5031390;28;20226;-79
2022/07/22 10:21:06;;;;;;;7.30;6.60;;;;;;;32.48;37.19;99530.72;5029047;28;20226;-79
2022/07/22 10:23:33;;;;;;;7.28;6.68;;;;;;;32.71;36.91;99528.78;5066897;28;20240;-79
2022/07/22 10:26:01;;;;;;;7.50;6.80;;;;;;;32.68;38.10;99528.75;5031149;28;20240;-79
2022/07/22 10:28:36;;;;;;;7.72;6.50;;;;;;;32.95;37.37;99522.06;5015700;28;20291;-80
2022/07/22 10:31:15;;;;;;;7.60;6.82;;;;;;;33.02;36.13;99526.94;5030773;28;20237;-80
2022/07/22 10:33:43;;;;;;;6.80;6.30;;;;;;;32.66;36.08;99517.22;5027385;28;20245;-79
2022/07/22 10:36:10;;;;;;;6.88;6.38;;;;;;;32.57;36.21;99517.41;5028031;28;20262;-80
2022/07/22 10:38:38;;;;;;;6.93;6.32;;;;;;;32.83;35.89;99513.94;5013427;28;20241;-79
2022/07/22 10:41:10;;;;;;;7.50;6.80;;;;;;;33.10;34.69;99512.81;5026753;28;20594;-80
2022/07/22 10:43:39;;;;;;;7.63;7.00;;;;;;;33.25;35.44;99513.88;5030650;28;20313;-80
2022/07/22 10:46:06;;;;;;;28.13;7.70;;;;;;;33.30;35.59;99510.78;5027376;28;20284;-79
2022/07/22 10:48:36;;;;;;;14.23;7.43;;;;;;;33.08;34.60;99520.69;5030316;28;20226;-79
2022/07/22 10:51:13;;;;;;;8.02;6.35;;;;;;;33.16;34.02;99505.81;5029012;28;20261;-80
2022/07/22 10:54:02;;;;;;;6.85;6.13;;;;;;;33.34;34.17;99506.06;5046776;28;20230;-80
2022/07/22 10:56:30;;;;;;;7.28;6.70;;;;;;;33.47;33.62;99503.84;5029009;28;20248;-79
2022/07/22 10:59:12;;;;;;;7.20;6.70;;;;;;;33.37;34.56;99508.09;5027958;28;20700;-80
2022/07/22 11:01:50;;;;;;;7.00;6.30;;;;;;;33.37;33.47;99496.16;5032363;28;20233;-79
2022/07/22 11:04:21;;;;;;;7.60;6.65;;;;;;;33.62;33.27;99498.13;5031280;28;20242;-79
2022/07/22 11:06:53;;;;;;;7.07;6.47;;;;;;;33.75;33.84;99512.63;5029193;28;20325;-80
2022/07/22 11:09:31;;;;;;;6.93;6.22;;;;;;;33.89;32.79;99489.75;5031065;28;20222;-79
2022/07/22 11:11:58;;;;;;;6.65;6.15;;;;;;;34.20;33.87;99494.94;5026708;28;20226;-80
2022/07/22 11:14:30;;;;;;;8.48;7.07;;;;;;;34.43;33.00;99489.22;5026905;28;20230;-80
2022/07/22 11:17:04;;;;;;;7.78;7.00;;;;;;;34.44;32.93;99490.78;5011810;28;20698;-80
2022/07/22 11:19:37;;;;;;;8.43;6.82;;;;;;;34.04;33.08;99484.00;5029875;28;20240;-79
2022/07/22 11:22:12;;;;;;;6.75;6.15;;;;;;;34.41;32.18;99486.00;5012289;28;20226;-79
2022/07/22 11:24:39;;;;;;;7.60;6.78;;;;;;;34.11;32.41;99482.50;5034637;28;20225;-80
2022/07/22 11:27:17;;;;;;;18.17;8.70;;;;;;;33.99;32.96;99478.78;5049514;28;20237;-79
2022/07/22 11:29:48;;;;;;;6.95;6.30;;;;;;;34.06;31.99;99475.28;5045724;28;20229;-80
2022/07/22 11:32:19;;;;;;;9.85;7.20;;;;;;;34.27;32.47;99472.75;5046746;28;20234;-80
2022/07/22 11:34:49;;;;;;;7.80;6.60;;;;;;;34.55;32.16;99463.09;5049866;28;20319;-81
2022/07/22 11:37:18;;;;;;;6.85;6.35;;;;;;;34.65;32.83;99470.72;5049297;28;20229;-80
2022/07/22 11:39:46;;;;;;;8.63;7.13;;;;;;;34.73;31.90;99464.88;5052190;28;20256;-80
2022/07/22 11:42:13;;;;;;;7.50;6.90;;;;;;;35.02;31.44;99459.53;5050481;28;20320;-79
2022/07/22 11:44:40;;;;;;;7.25;6.75;;;;;;;35.04;31.85;99455.19;5052105;28;20261;-79